Time;durP1;ratioP1;P1;durP2;ratioP2;P2;SDS_P1;SDS_P2;PMS_P1;PMS_P2;Temp;Humidity;BMP_temperature;BMP_pressure;BME280_temperature;BME280_humidity;BME280_pressure;Samples;Min_cycle;Max_cycle;Signal;HPM_P1;HPM_P2
2023/01/18 00:02:25;;;;;;;1999.90;999.90;;;0.20;1.00;;;;;;4994338;28;20415;-72
2023/01/18 00:04:50;;;;;;;1999.90;999.90;;;0.30;1.00;;;;;;4993817;28;20240;-73
2023/01/18 00:07:16;;;;;;;1999.90;999.90;;;0.30;1.00;;;;;;4993831;28;20182;-73
2023/01/18 00:09:41;;;;;;;1999.90;999.90;;;0.30;1.00;;;;;;4993621;28;20208;-73
2023/01/18 00:12:07;;;;;;;1999.90;999.90;;;0.20;1.00;;;;;;4994202;28;20181;-73
2023/01/18 00:14:33;;;;;;;1999.90;999.90;;;0.10;1.00;;;;;;4993658;28;20647;-73
2023/01/18 00:16:59;;;;;;;1999.90;999.90;;;0.20;1.00;;;;;;4994483;28;20228;-73
2023/01/18 00:19:24;;;;;;;1999.90;999.90;;;0.10;1.00;;;;;;5004852;28;20174;-73
2023/01/18 00:21:53;;;;;;;1999.90;999.90;;;0.20;1.00;;;;;;4996220;28;20168;-73
2023/01/18 00:24:21;;;;;;;1999.90;999.90;;;0.10;1.00;;;;;;4996065;28;20213;-73
2023/01/18 00:26:47;;;;;;;1999.90;999.90;;;0.10;1.00;;;;;;5001757;28;20169;-73
2023/01/18 00:29:13;;;;;;;1999.90;999.90;;;0.00;1.00;;;;;;4997679;28;20165;-73
2023/01/18 00:31:40;;;;;;;1999.90;999.90;;;0.00;1.00;;;;;;5004285;28;20423;-73
2023/01/18 00:34:06;;;;;;;1999.90;999.90;;;0.00;1.00;;;;;;5002795;28;20190;-72
2023/01/18 00:36:32;;;;;;;1999.90;999.90;;;-0.10;1.00;;;;;;4995786;28;20173;-73
2023/01/18 00:38:59;;;;;;;1999.90;999.90;;;-0.10;1.00;;;;;;5000614;28;20640;-73
2023/01/18 00:41:25;;;;;;;1999.90;999.90;;;-0.20;1.00;;;;;;5004600;28;20245;-73
2023/01/18 00:43:51;;;;;;;1999.90;999.90;;;-0.20;6.80;;;;;;5003063;28;20241;-73
2023/01/18 00:46:24;;;;;;;1999.90;999.90;;;-0.10;21.00;;;;;;4995599;28;20403;-73
2023/01/18 00:48:51;;;;;;;1999.90;999.90;;;0.00;23.90;;;;;;4995392;28;20204;-73
2023/01/18 00:51:19;;;;;;;1999.90;999.90;;;0.10;27.40;;;;;;4998112;28;20193;-73
2023/01/18 00:53:45;;;;;;;1999.90;999.90;;;0.10;24.60;;;;;;5001445;28;20209;-72
2023/01/18 00:56:17;;;;;;;1999.90;999.90;;;0.10;18.30;;;;;;4996449;28;20574;-73
2023/01/18 00:58:43;;;;;;;1999.90;999.90;;;0.10;11.00;;;;;;4996814;28;20199;-73
2023/01/18 01:01:10;;;;;;;1999.90;999.90;;;0.00;1.00;;;;;;4996366;28;20209;-72
2023/01/18 01:06:45;;;;;;;1999.90;999.90;;;-0.10;10.60;;;;;;4996775;28;20532;-73
2023/01/18 01:09:14;;;;;;;1999.90;999.90;;;-0.20;25.30;;;;;;4994712;28;20220;-73
2023/01/18 01:12:31;;;;;;;1999.90;999.90;;;-0.20;43.80;;;;;;4994762;28;20161;-73
2023/01/18 01:28:05;;;;;;;1999.90;999.90;;;-0.10;99.90;;;;;;4996669;28;20177;-72
2023/01/18 01:30:32;;;;;;;1999.90;999.90;;;-0.20;99.90;;;;;;4995311;28;20170;-73
2023/01/18 01:32:57;;;;;;;1999.90;999.90;;;-0.10;99.90;;;;;;4995969;28;20169;-73
2023/01/18 01:35:23;;;;;;;1999.90;999.90;;;-0.20;99.90;;;;;;4998308;28;20194;-73
2023/01/18 01:37:48;;;;;;;1999.90;999.90;;;-0.20;99.90;;;;;;5001658;28;20233;-73
2023/01/18 01:40:14;;;;;;;1999.90;999.90;;;-0.10;99.90;;;;;;4996348;28;20169;-73
2023/01/18 01:42:39;;;;;;;1999.90;999.90;;;-0.10;99.90;;;;;;5006162;28;20170;-73
2023/01/18 01:45:06;;;;;;;1999.90;999.90;;;-0.10;99.90;;;;;;5005696;28;20201;-73
2023/01/18 01:47:40;;;;;;;1999.90;999.90;;;-0.10;99.90;;;;;;5005554;28;20193;-72
2023/01/18 01:50:21;;;;;;;1999.90;999.90;;;-0.20;99.90;;;;;;5005019;28;20586;-73
2023/01/18 01:52:47;;;;;;;1999.90;999.90;;;-0.20;99.90;;;;;;5001507;28;20162;-73
2023/01/18 01:55:29;;;;;;;1999.90;999.90;;;-0.20;99.90;;;;;;4994475;28;20193;-73
2023/01/18 01:58:13;;;;;;;1999.90;999.90;;;-0.30;99.90;;;;;;4994198;28;20216;-73
2023/01/18 02:00:38;;;;;;;1999.90;999.90;;;-0.30;99.90;;;;;;4996460;28;20616;-73
2023/01/18 02:03:11;;;;;;;1999.90;999.90;;;-0.40;99.90;;;;;;4993701;28;20236;-73
2023/01/18 02:05:42;;;;;;;1999.90;999.90;;;-0.40;99.90;;;;;;4993500;28;20170;-73
2023/01/18 02:08:10;;;;;;;1999.90;999.90;;;-0.40;99.90;;;;;;4993574;28;20185;-73
2023/01/18 02:10:37;;;;;;;1999.90;999.90;;;-0.50;99.90;;;;;;4993343;28;20181;-73
2023/01/18 02:13:06;;;;;;;1999.90;999.90;;;-0.40;99.90;;;;;;4994978;28;20196;-73
2023/01/18 02:15:43;;;;;;;1999.90;999.90;;;-0.50;99.90;;;;;;5004607;28;20538;-73
2023/01/18 02:18:31;;;;;;;1999.90;999.90;;;-0.50;99.90;;;;;;5005909;28;20192;-73
2023/01/18 02:21:13;;;;;;;1999.90;999.90;;;-0.40;99.90;;;;;;5006281;28;20173;-73
2023/01/18 02:24:12;;;;;;;1999.90;999.90;;;-0.40;99.90;;;;;;5003889;28;20217;-73
2023/01/18 02:27:00;;;;;;;1999.90;999.90;;;-0.40;99.90;;;;;;4993809;28;20150;-72
2023/01/18 02:30:04;;;;;;;1999.90;999.90;;;-0.50;99.90;;;;;;4993617;28;20643;-73
2023/01/18 02:32:36;;;;;;;1999.90;999.90;;;-0.40;99.90;;;;;;4992033;28;20182;-73
2023/01/18 02:35:13;;;;;;;1999.90;999.90;;;-0.50;99.90;;;;;;5000978;28;20222;-73
2023/01/18 02:38:04;;;;;;;1999.90;999.90;;;-0.40;99.90;;;;;;4996913;28;20178;-73
2023/01/18 02:40:53;;;;;;;1999.90;999.90;;;-0.40;99.90;;;;;;4992916;28;20659;-73
2023/01/18 02:48:55;;;;;;;1999.90;999.90;;;-0.50;99.90;;;;;;4998137;28;20184;-72
2023/01/18 02:51:21;;;;;;;1999.90;999.90;;;-0.50;99.90;;;;;;5004709;28;20170;-73
2023/01/18 02:53:47;;;;;;;1999.90;999.90;;;-0.50;99.90;;;;;;4993750;28;20737;-73
2023/01/18 02:56:15;;;;;;;1999.90;999.90;;;-0.40;99.90;;;;;;4994100;28;20173;-72
2023/01/18 02:58:47;;;;;;;1999.90;999.90;;;-0.40;99.90;;;;;;4996170;28;20232;-73
2023/01/18 03:01:13;;;;;;;1999.90;999.90;;;-0.30;99.90;;;;;;4997074;28;20264;-72
2023/01/18 03:03:42;;;;;;;1999.90;999.90;;;-0.30;99.90;;;;;;4996643;28;20718;-73
2023/01/18 03:06:08;;;;;;;1999.90;999.90;;;-0.30;99.90;;;;;;4996866;28;20170;-73
2023/01/18 03:08:51;;;;;;;1999.90;999.90;;;-0.20;99.90;;;;;;4997232;28;20176;-73
2023/01/18 03:11:22;;;;;;;1999.90;999.90;;;-0.10;99.90;;;;;;4996628;28;20639;-73
2023/01/18 03:14:00;;;;;;;1999.90;999.90;;;-0.20;99.90;;;;;;4998523;28;20213;-73
2023/01/18 03:16:39;;;;;;;1999.90;999.90;;;-0.20;99.90;;;;;;5005060;28;20174;-72
2023/01/18 03:22:04;;;;;;;1999.90;999.90;;;-0.20;99.90;;;;;;4992876;28;20173;-73
2023/01/18 03:24:30;;;;;;;1999.90;999.90;;;-0.30;99.90;;;;;;4993211;28;20283;-73
2023/01/18 03:35:25;;;;;;;1999.90;999.90;;;-0.20;99.90;;;;;;4996060;28;20196;-73
2023/01/18 03:37:53;;;;;;;1999.90;999.90;;;-0.20;99.90;;;;;;4994440;28;20564;-73
2023/01/18 03:40:36;;;;;;;1999.90;999.90;;;-0.30;99.90;;;;;;4992190;28;20178;-73
2023/01/18 03:43:15;;;;;;;1999.90;999.90;;;-0.40;99.90;;;;;;4994262;28;20550;-72
2023/01/18 03:45:47;;;;;;;1999.90;999.90;;;-0.30;99.90;;;;;;4999710;28;20313;-73
2023/01/18 03:48:13;;;;;;;1999.90;999.90;;;-0.30;99.90;;;;;;5003895;28;20185;-73
2023/01/18 03:50:50;;;;;;;1999.90;999.90;;;-0.30;99.90;;;;;;5003603;28;20200;-73
2023/01/18 03:53:31;;;;;;;1999.90;999.90;;;0.00;99.90;;;;;;5005286;28;20205;-73
2023/01/18 03:56:03;;;;;;;1999.90;999.90;;;-0.30;99.90;;;;;;5008292;28;20161;-73
2023/01/18 03:58:34;;;;;;;1999.90;999.90;;;-0.20;99.90;;;;;;5000319;28;20546;-73
2023/01/18 04:01:02;;;;;;;1999.90;999.90;;;-0.20;99.90;;;;;;4996186;28;20640;-73
2023/01/18 04:03:32;;;;;;;1999.90;999.90;;;-0.20;99.90;;;;;;4995830;28;20340;-73
2023/01/18 04:06:01;;;;;;;1999.90;999.90;;;-0.20;99.90;;;;;;4995986;28;20173;-73
2023/01/18 04:08:26;;;;;;;1999.90;999.90;;;-0.20;99.90;;;;;;5001807;28;20193;-73
2023/01/18 04:10:52;;;;;;;1999.90;999.90;;;-0.10;99.90;;;;;;4997668;28;20566;-73
2023/01/18 04:13:17;;;;;;;1999.90;999.90;;;0.30;99.90;;;;;;4998539;28;20177;-72
2023/01/18 04:15:43;;;;;;;1999.90;999.90;;;-0.10;99.90;;;;;;4999514;28;20165;-72
2023/01/18 04:18:08;;;;;;;1999.90;999.90;;;-0.10;99.90;;;;;;4998501;28;20177;-73
2023/01/18 04:20:34;;;;;;;1999.90;999.90;;;-0.10;99.90;;;;;;5001925;28;20233;-72
2023/01/18 04:23:00;;;;;;;1999.90;999.90;;;-0.10;99.90;;;;;;4996870;28;20260;-73
2023/01/18 04:25:25;;;;;;;1999.90;999.90;;;-0.10;99.90;;;;;;4995749;28;20589;-73
2023/01/18 04:27:51;;;;;;;1999.90;999.90;;;-0.10;99.90;;;;;;4995417;28;20174;-73
2023/01/18 04:30:17;;;;;;;1999.90;999.90;;;-0.10;99.90;;;;;;4995633;28;20170;-72
2023/01/18 04:32:45;;;;;;;1999.90;999.90;;;-0.10;99.90;;;;;;4997749;28;20178;-72
2023/01/18 04:35:10;;;;;;;1999.90;999.90;;;-0.10;99.50;;;;;;4997034;28;20212;-72
2023/01/18 04:37:37;;;;;;;1999.90;999.90;;;-0.20;99.90;;;;;;4998940;28;20640;-72
2023/01/18 04:40:04;;;;;;;1999.90;999.90;;;-0.20;99.90;;;;;;4998521;28;20424;-72
2023/01/18 04:42:29;;;;;;;1999.90;999.90;;;-0.30;99.90;;;;;;4999279;28;20186;-72
2023/01/18 04:44:55;;;;;;;1999.90;999.90;;;-0.30;99.90;;;;;;4998643;28;20201;-72
2023/01/18 04:47:21;;;;;;;1999.90;999.90;;;-0.30;99.90;;;;;;4997573;28;20178;-73
2023/01/18 04:49:46;;;;;;;1999.90;999.90;;;-0.20;99.70;;;;;;4998448;28;20632;-73
2023/01/18 04:52:12;;;;;;;1999.90;999.90;;;-0.20;95.40;;;;;;4998242;28;20397;-73
2023/01/18 04:54:38;;;;;;;1999.90;999.90;;;-0.20;92.70;;;;;;4997946;28;20240;-72
2023/01/18 04:57:03;;;;;;;1999.90;999.90;;;-0.20;90.20;;;;;;4997852;28;20201;-73
2023/01/18 04:59:29;;;;;;;1999.90;999.90;;;-0.30;84.20;;;;;;4997231;28;20510;-73
2023/01/18 05:01:54;;;;;;;1999.90;999.90;;;-0.30;87.00;;;;;;4997270;28;20181;-73
2023/01/18 05:04:20;;;;;;;1999.90;999.90;;;-0.40;90.10;;;;;;4996000;28;20205;-73
2023/01/18 05:06:48;;;;;;;1999.90;999.90;;;-0.40;90.10;;;;;;4994077;28;20663;-73
2023/01/18 05:09:14;;;;;;;1999.90;999.90;;;-0.40;91.10;;;;;;4994776;28;20647;-73
2023/01/18 05:11:41;;;;;;;1999.90;999.90;;;-0.40;92.40;;;;;;4994795;28;20257;-73
2023/01/18 05:14:07;;;;;;;1999.90;999.90;;;-0.40;91.40;;;;;;4994843;28;20293;-73
2023/01/18 05:16:34;;;;;;;1999.90;999.90;;;-0.40;88.00;;;;;;4994525;28;20170;-73
2023/01/18 05:18:59;;;;;;;1999.90;999.90;;;-0.50;91.40;;;;;;4994637;28;20256;-73
2023/01/18 05:21:25;;;;;;;1999.90;999.90;;;-0.50;93.40;;;;;;4994713;28;20616;-73
2023/01/18 05:23:51;;;;;;;1999.90;999.90;;;-0.50;96.40;;;;;;4994483;28;20229;-73
2023/01/18 05:26:19;;;;;;;1999.90;999.90;;;-0.50;97.50;;;;;;4994667;28;20209;-72
2023/01/18 05:28:46;;;;;;;1999.90;999.90;;;-0.50;95.40;;;;;;4994562;28;20196;-73
2023/01/18 05:31:12;;;;;;;1999.90;999.90;;;-0.50;95.50;;;;;;4994641;28;20639;-73
2023/01/18 05:33:38;;;;;;;1999.90;999.90;;;-0.50;96.80;;;;;;4994499;28;20228;-73
2023/01/18 05:36:04;;;;;;;1999.90;999.90;;;-0.50;99.20;;;;;;4994520;28;20205;-72
2023/01/18 05:38:30;;;;;;;1999.90;999.90;;;-0.50;99.90;;;;;;4994481;28;20405;-73
2023/01/18 05:40:56;;;;;;;1999.90;999.90;;;-0.50;97.10;;;;;;4994379;28;20533;-73
2023/01/18 05:43:23;;;;;;;1999.90;999.90;;;-0.50;96.90;;;;;;4994264;28;20206;-72
2023/01/18 05:45:49;;;;;;;1999.90;999.90;;;-0.50;97.20;;;;;;4994167;28;20657;-73
2023/01/18 05:48:15;;;;;;;1999.90;999.90;;;-0.50;96.30;;;;;;4994373;28;20181;-73
2023/01/18 05:50:42;;;;;;;1999.90;999.90;;;-0.50;97.00;;;;;;4994033;28;20170;-73
2023/01/18 05:53:08;;;;;;;1999.90;999.90;;;-0.50;99.90;;;;;;4994084;28;20424;-72
2023/01/18 05:55:34;;;;;;;1999.90;999.90;;;-0.60;95.10;;;;;;4994115;28;20174;-73
2023/01/18 05:58:00;;;;;;;1999.90;999.90;;;-0.50;96.40;;;;;;4994102;28;20910;-73
2023/01/18 06:00:26;;;;;;;1999.90;999.90;;;-0.50;95.50;;;;;;4993911;28;20181;-73
2023/01/18 06:02:53;;;;;;;1999.90;999.90;;;-0.50;94.70;;;;;;4994096;28;20409;-72
2023/01/18 06:05:20;;;;;;;1999.90;999.90;;;-0.60;96.00;;;;;;4993989;28;20296;-72
2023/01/18 06:07:46;;;;;;;1999.90;999.90;;;-0.60;97.70;;;;;;4993615;28;20249;-73
2023/01/18 06:10:12;;;;;;;1999.90;999.90;;;-0.50;98.20;;;;;;4993675;28;20174;-72
2023/01/18 06:12:38;;;;;;;1999.90;999.90;;;-0.50;98.50;;;;;;4993863;28;20189;-72
2023/01/18 06:15:04;;;;;;;1999.90;999.90;;;-0.50;97.90;;;;;;4993693;28;20444;-72
2023/01/18 06:17:30;;;;;;;1999.90;999.90;;;-0.50;95.10;;;;;;4993396;28;20736;-73
2023/01/18 06:19:56;;;;;;;1999.90;999.90;;;-0.50;96.60;;;;;;4993559;28;20423;-73
2023/01/18 06:22:22;;;;;;;1999.90;999.90;;;-0.50;95.50;;;;;;4993723;28;20178;-72
2023/01/18 06:24:48;;;;;;;1999.90;999.90;;;-0.50;93.80;;;;;;4993357;28;20213;-72
2023/01/18 06:27:14;;;;;;;1999.90;999.90;;;-0.50;92.20;;;;;;4993475;28;20185;-72
2023/01/18 06:29:39;;;;;;;1999.90;999.90;;;-0.50;86.80;;;;;;4993601;28;20680;-72
2023/01/18 06:32:05;;;;;;;1999.90;999.90;;;-0.50;85.40;;;;;;4993651;28;20169;-72
2023/01/18 06:34:32;;;;;;;1999.90;999.90;;;-0.50;81.00;;;;;;4993190;28;20247;-72
2023/01/18 06:36:57;;;;;;;1999.90;999.90;;;-0.50;80.80;;;;;;4993981;28;20170;-72
2023/01/18 06:39:23;;;;;;;1999.90;999.90;;;-0.50;74.10;;;;;;4993817;28;20177;-72
2023/01/18 06:41:49;;;;;;;1999.90;999.90;;;-0.50;69.30;;;;;;4992998;28;20496;-72
2023/01/18 06:44:14;;;;;;;1999.90;999.90;;;-0.40;65.10;;;;;;4992877;28;20204;-72
2023/01/18 06:46:42;;;;;;;1999.90;999.90;;;-0.40;63.00;;;;;;4992986;28;20220;-72
2023/01/18 06:49:08;;;;;;;1999.90;999.90;;;-0.40;57.70;;;;;;4992866;28;20552;-72
2023/01/18 06:51:34;;;;;;;1999.90;999.90;;;-0.50;57.60;;;;;;4993012;28;20169;-72
2023/01/18 06:53:59;;;;;;;1999.90;999.90;;;-0.50;68.30;;;;;;4992806;28;20228;-72
2023/01/18 06:56:25;;;;;;;1999.90;999.90;;;-0.40;60.10;;;;;;4992926;28;20186;-72
2023/01/18 06:58:54;;;;;;;1999.90;999.90;;;-0.50;56.00;;;;;;4992652;28;20656;-72
2023/01/18 07:01:19;;;;;;;1999.90;999.90;;;-0.50;58.30;;;;;;4992861;28;20612;-72
2023/01/18 07:03:45;;;;;;;1999.90;999.90;;;-0.40;50.00;;;;;;4992608;28;20205;-72
2023/01/18 07:06:11;;;;;;;1999.90;999.90;;;-0.50;47.00;;;;;;4992711;28;20249;-72
2023/01/18 07:08:38;;;;;;;1999.90;999.90;;;-0.40;43.00;;;;;;4992615;28;20174;-72
2023/01/18 07:11:06;;;;;;;1999.90;999.90;;;-0.40;40.40;;;;;;4992670;28;20177;-72
2023/01/18 07:13:32;;;;;;;1999.90;999.90;;;-0.50;39.10;;;;;;4992605;28;20251;-72
2023/01/18 07:16:00;;;;;;;1999.90;999.90;;;-0.40;39.30;;;;;;4992558;28;20260;-72
2023/01/18 07:18:28;;;;;;;1999.90;999.90;;;-0.40;32.60;;;;;;4992648;28;20433;-72
2023/01/18 07:21:02;;;;;;;1999.90;999.90;;;-0.40;27.30;;;;;;4992509;28;20196;-72
2023/01/18 07:23:29;;;;;;;1999.90;999.90;;;-0.40;27.30;;;;;;4992234;28;20205;-71
2023/01/18 07:26:07;;;;;;;1999.90;999.90;;;-0.40;25.80;;;;;;4993701;28;20188;-71
2023/01/18 07:28:33;;;;;;;1999.90;999.90;;;-0.40;20.80;;;;;;4995932;28;20176;-71
2023/01/18 07:30:59;;;;;;;1999.90;999.90;;;-0.40;17.00;;;;;;4999473;28;20501;-71
2023/01/18 07:33:25;;;;;;;1999.90;999.90;;;-0.40;13.90;;;;;;4998844;28;20204;-71
2023/01/18 07:35:52;;;;;;;1999.90;999.90;;;-0.30;9.30;;;;;;4998631;28;20181;-71
2023/01/18 07:38:18;;;;;;;1999.90;999.90;;;-0.30;2.80;;;;;;4998731;28;20181;-71
2023/01/18 07:40:45;;;;;;;1999.90;999.90;;;-0.30;1.00;;;;;;4997946;28;20523;-71
2023/01/18 07:43:11;;;;;;;1999.90;999.90;;;-0.20;1.20;;;;;;4997943;28;20219;-71
2023/01/18 07:45:37;;;;;;;1999.90;999.90;;;-0.30;1.00;;;;;;4998261;28;20261;-71
2023/01/18 07:48:04;;;;;;;1999.90;999.90;;;-0.20;1.00;;;;;;4998202;28;20204;-71
2023/01/18 07:50:29;;;;;;;1999.90;999.90;;;-0.20;1.00;;;;;;4998073;28;20158;-71
2023/01/18 07:52:55;;;;;;;1999.90;999.90;;;-0.20;1.00;;;;;;4998161;28;20516;-71
2023/01/18 07:55:21;;;;;;;1999.90;999.90;;;-0.10;1.00;;;;;;4997311;28;20558;-71
2023/01/18 07:57:47;;;;;;;1999.90;999.90;;;-0.10;1.00;;;;;;5001760;28;20174;-71
2023/01/18 08:00:13;;;;;;;1999.90;999.90;;;-0.10;1.00;;;;;;5001358;28;20919;-71
2023/01/18 08:02:39;;;;;;;1999.90;999.90;;;-0.10;1.00;;;;;;4997416;28;20844;-71
2023/01/18 08:05:08;;;;;;;1999.90;999.90;;;-0.10;1.00;;;;;;4997689;28;20236;-71
2023/01/18 08:07:33;;;;;;;1999.90;999.90;;;0.00;1.00;;;;;;4997790;28;20177;-71
2023/01/18 08:09:59;;;;;;;1999.90;999.90;;;0.00;1.00;;;;;;4997050;28;20176;-71
2023/01/18 08:12:24;;;;;;;1999.90;999.90;;;0.10;1.00;;;;;;4997101;28;20193;-71
2023/01/18 08:14:50;;;;;;;1999.90;999.90;;;0.10;1.00;;;;;;4997194;28;20558;-71
2023/01/18 08:17:15;;;;;;;1999.90;999.90;;;0.10;1.00;;;;;;4995453;28;20185;-71
2023/01/18 08:19:41;;;;;;;1999.90;999.90;;;0.20;1.00;;;;;;4996446;28;20180;-71
2023/01/18 08:22:07;;;;;;;1999.90;999.90;;;0.20;1.00;;;;;;4996608;28;20170;-71
2023/01/18 08:24:32;;;;;;;1999.90;999.90;;;0.20;1.00;;;;;;4997132;28;20216;-71
2023/01/18 08:26:58;;;;;;;1999.90;999.90;;;0.30;1.00;;;;;;4996908;28;20166;-71
2023/01/18 08:29:24;;;;;;;1999.90;999.90;;;0.30;1.00;;;;;;4997408;28;20170;-71
2023/01/18 08:31:53;;;;;;;1999.90;999.90;;;0.30;1.00;;;;;;4997068;28;20639;-71
2023/01/18 08:34:19;;;;;;;1999.90;999.90;;;0.30;1.00;;;;;;4996897;28;20224;-71
2023/01/18 08:36:45;;;;;;;1999.90;999.90;;;0.40;1.00;;;;;;4995335;28;20165;-71
2023/01/18 08:39:12;;;;;;;1999.90;999.90;;;0.40;1.00;;;;;;4995120;28;20265;-71
2023/01/18 08:41:38;;;;;;;1999.90;999.90;;;0.40;1.00;;;;;;4995190;28;20471;-71
2023/01/18 08:44:03;;;;;;;1999.90;999.90;;;0.40;1.00;;;;;;4995097;28;20202;-71
2023/01/18 08:46:29;;;;;;;1999.90;999.90;;;0.40;1.00;;;;;;4995219;28;20162;-71
2023/01/18 08:48:56;;;;;;;1999.90;999.90;;;0.40;1.00;;;;;;4995048;28;20181;-71
2023/01/18 08:51:24;;;;;;;1999.90;999.90;;;0.40;1.00;;;;;;4995338;28;20188;-71
2023/01/18 08:53:52;;;;;;;1999.90;999.90;;;0.50;1.00;;;;;;4994979;28;20663;-71
2023/01/18 08:56:19;;;;;;;1999.90;999.90;;;0.50;1.00;;;;;;4994885;28;20655;-71
2023/01/18 08:58:44;;;;;;;1999.90;999.90;;;0.60;1.00;;;;;;4996065;28;20189;-71
2023/01/18 09:01:10;;;;;;;1999.90;999.90;;;0.60;1.00;;;;;;4995911;28;20177;-71
2023/01/18 09:03:36;;;;;;;1999.90;999.90;;;0.70;99.90;;;;;;4996931;28;20208;-71
2023/01/18 09:06:06;;;;;;;1999.90;999.90;;;0.70;99.90;;;;;;4997430;28;20546;-72
2023/01/18 09:08:32;;;;;;;1999.90;999.90;;;0.70;99.90;;;;;;4996248;28;20237;-71
2023/01/18 09:11:06;;;;;;;1999.90;999.90;;;0.70;99.90;;;;;;5000245;28;20585;-71
2023/01/18 09:13:32;;;;;;;1999.90;999.90;;;0.80;99.90;;;;;;5000623;28;20429;-71
2023/01/18 09:16:09;;;;;;;1999.90;999.90;;;0.80;99.90;;;;;;4999629;28;20178;-71
2023/01/18 09:18:36;;;;;;;1999.90;999.90;;;0.80;99.90;;;;;;5000380;28;20441;-71
2023/01/18 09:21:09;;;;;;;1999.90;999.90;;;1.00;99.90;;;;;;4999231;28;20184;-72
2023/01/18 09:23:38;;;;;;;1999.90;999.90;;;1.00;99.90;;;;;;4999650;28;20684;-72
2023/01/18 09:26:07;;;;;;;1999.90;999.90;;;1.10;99.90;;;;;;5000849;28;20201;-71
2023/01/18 09:28:33;;;;;;;1999.90;999.90;;;1.10;99.90;;;;;;4997191;28;20166;-71
2023/01/18 09:31:01;;;;;;;1999.90;999.90;;;1.10;99.90;;;;;;4994443;28;20177;-72
2023/01/18 09:33:27;;;;;;;1999.90;999.90;;;1.20;99.90;;;;;;4994321;28;20425;-71
2023/01/18 09:35:54;;;;;;;1999.90;999.90;;;1.30;99.90;;;;;;4994159;28;20256;-71
2023/01/18 09:38:20;;;;;;;1999.90;999.90;;;1.30;99.90;;;;;;4994248;28;20180;-71
2023/01/18 09:40:46;;;;;;;1999.90;999.90;;;1.30;99.90;;;;;;4994133;28;20166;-72
2023/01/18 09:43:16;;;;;;;1999.90;999.90;;;1.40;99.90;;;;;;4993904;28;20166;-71
2023/01/18 09:45:45;;;;;;;1999.90;999.90;;;1.40;57.80;;;;;;4994128;28;20208;-71
2023/01/18 09:48:24;;;;;;;1999.90;999.90;;;1.40;24.40;;;;;;4994038;28;20175;-71
2023/01/18 09:50:52;;;;;;;1999.90;999.90;;;1.40;23.80;;;;;;4993438;28;20599;-71
2023/01/18 09:53:36;;;;;;;1999.90;999.90;;;1.40;87.00;;;;;;4993755;28;20181;-72
2023/01/18 09:56:15;;;;;;;1999.90;999.90;;;1.40;1.00;;;;;;4993959;28;20200;-72
2023/01/18 09:59:22;;;;;;;1999.90;999.90;;;1.40;1.00;;;;;;4994816;28;20169;-72
2023/01/18 10:01:49;;;;;;;1999.90;999.90;;;1.50;1.00;;;;;;4991406;28;20192;-69
2023/01/18 10:04:31;;;;;;;1999.90;999.90;;;1.60;1.00;;;;;;4994892;28;20296;-69
2023/01/18 10:07:02;;;;;;;1999.90;999.90;;;1.50;1.00;;;;;;4995749;28;20863;-69
2023/01/18 10:09:39;;;;;;;1999.90;999.90;;;1.60;1.00;;;;;;4996686;28;20177;-70
2023/01/18 10:12:33;;;;;;;1999.90;999.90;;;1.60;1.00;;;;;;4995123;28;20161;-69
2023/01/18 10:15:09;;;;;;;1999.90;999.90;;;1.50;1.00;;;;;;4996495;28;20697;-69
2023/01/18 10:17:40;;;;;;;1999.90;999.90;;;1.60;1.00;;;;;;4995364;28;20181;-69
2023/01/18 10:20:12;;;;;;;1999.90;999.90;;;1.60;1.00;;;;;;4995991;28;20550;-69
2023/01/18 10:22:49;;;;;;;1999.90;999.90;;;1.70;1.00;;;;;;4996464;28;20195;-69
2023/01/18 10:25:31;;;;;;;1999.90;999.90;;;1.80;99.90;;;;;;4997367;28;20201;-68
2023/01/18 10:27:57;;;;;;;1999.90;999.90;;;1.80;99.90;;;;;;4997417;28;20181;-69
2023/01/18 10:30:32;;;;;;;1999.90;999.90;;;1.80;99.90;;;;;;4994923;28;20220;-71
2023/01/18 10:33:02;;;;;;;1999.90;999.90;;;1.90;99.90;;;;;;4994527;28;20180;-69
2023/01/18 10:35:33;;;;;;;1999.90;999.90;;;1.90;99.90;;;;;;4995711;28;20201;-72
2023/01/18 10:38:07;;;;;;;1999.90;999.90;;;1.90;99.90;;;;;;4997100;28;20180;-71
2023/01/18 10:40:35;;;;;;;1999.90;999.90;;;2.00;99.90;;;;;;4997691;28;20248;-71
2023/01/18 10:43:03;;;;;;;1999.90;999.90;;;2.00;99.90;;;;;;4996387;28;20527;-71
2023/01/18 10:45:33;;;;;;;1999.90;999.90;;;2.00;99.90;;;;;;4997178;28;20562;-71
2023/01/18 10:48:19;;;;;;;1999.90;999.90;;;2.10;1.00;;;;;;4998480;28;20401;-71
2023/01/18 10:50:48;;;;;;;1999.90;999.90;;;2.10;28.10;;;;;;4997742;28;20244;-71
2023/01/18 10:53:34;;;;;;;1999.90;999.90;;;2.80;99.90;;;;;;4996552;28;20169;-73
2023/01/18 10:56:08;;;;;;;1999.90;999.90;;;2.20;1.00;;;;;;4993143;28;20244;-72
2023/01/18 10:58:45;;;;;;;1999.90;999.90;;;2.30;70.80;;;;;;4991785;28;20213;-72
2023/01/18 11:01:28;;;;;;;1999.90;999.90;;;2.40;54.70;;;;;;4993426;28;20166;-71
2023/01/18 11:04:04;;;;;;;1999.90;999.90;;;2.50;1.00;;;;;;4993067;28;20237;-71
2023/01/18 11:06:43;;;;;;;1999.90;999.90;;;2.50;1.00;;;;;;4993958;28;20238;-71
2023/01/18 11:09:50;;;;;;;1999.90;999.90;;;2.70;99.90;;;;;;4995441;28;20301;-71
2023/01/18 11:12:37;;;;;;;1999.90;999.90;;;2.50;93.40;;;;;;4995058;28;20170;-71
2023/01/18 11:15:15;;;;;;;1999.90;999.90;;;2.90;99.90;;;;;;4994885;28;20305;-71
2023/01/18 11:17:43;;;;;;;1999.90;999.90;;;3.00;1.00;;;;;;4994536;28;20166;-71
2023/01/18 11:20:24;;;;;;;1999.90;999.90;;;3.00;1.00;;;;;;4995089;28;20170;-71
2023/01/18 11:22:57;;;;;;;1999.90;999.90;;;3.10;1.00;;;;;;4995401;28;20204;-71
2023/01/18 11:25:24;;;;;;;1999.90;999.90;;;3.10;1.00;;;;;;4995909;28;20584;-71
2023/01/18 11:27:50;;;;;;;1999.90;999.90;;;3.20;1.00;;;;;;4996676;28;20171;-71
2023/01/18 11:30:24;;;;;;;1999.90;999.90;;;3.30;99.90;;;;;;4996868;28;20535;-72
2023/01/18 11:32:50;;;;;;;1999.90;999.90;;;3.60;99.90;;;;;;4996652;28;20749;-72
2023/01/18 11:35:35;;;;;;;1999.90;999.90;;;4.10;99.90;;;;;;4994858;28;20198;-71
2023/01/18 11:38:09;;;;;;;1999.90;999.90;;;4.80;99.90;;;;;;4995373;28;20240;-71
2023/01/18 11:40:35;;;;;;;1999.90;999.90;;;5.40;99.90;;;;;;4997094;28;20454;-73
2023/01/18 11:43:16;;;;;;;1999.90;999.90;;;5.80;99.90;;;;;;4995951;28;20413;-72
2023/01/18 11:45:53;;;;;;;1999.90;999.90;;;6.40;99.90;;;;;;4993014;28;20248;-72
2023/01/18 11:48:32;;;;;;;1999.90;999.90;;;6.90;99.90;;;;;;4992583;28;20817;-72
2023/01/18 11:51:16;;;;;;;1999.90;999.90;;;7.60;99.90;;;;;;4992233;28;20888;-72
2023/01/18 11:54:21;;;;;;;1999.90;999.90;;;8.10;99.90;;;;;;4992229;28;20453;-72
2023/01/18 11:56:54;;;;;;;1999.90;999.90;;;8.70;99.90;;;;;;4992124;28;21039;-72
2023/01/18 11:59:29;;;;;;;1999.90;999.90;;;9.40;99.90;;;;;;4992065;28;20395;-72
2023/01/18 12:02:22;;;;;;;1999.90;999.90;;;9.80;99.90;;;;;;4992447;28;20397;-72
2023/01/18 12:05:08;;;;;;;1999.90;999.90;;;10.00;99.90;;;;;;4991878;28;20515;-72
2023/01/18 12:07:53;;;;;;;1999.90;999.90;;;10.10;99.90;;;;;;4992069;28;21087;-72
2023/01/18 12:10:29;;;;;;;1999.90;999.90;;;10.40;99.90;;;;;;4991936;28;20401;-72
2023/01/18 12:13:09;;;;;;;1999.90;999.90;;;10.40;98.30;;;;;;4991822;28;20391;-72
2023/01/18 12:16:00;;;;;;;1999.90;999.90;;;10.40;96.60;;;;;;4992704;28;20417;-72
2023/01/18 12:18:47;;;;;;;1999.90;999.90;;;10.30;96.70;;;;;;4993722;28;20406;-72
2023/01/18 12:21:17;;;;;;;1999.90;999.90;;;10.60;96.10;;;;;;4994044;28;20417;-72
2023/01/18 12:24:10;;;;;;;1999.90;999.90;;;10.90;92.80;;;;;;4993692;28;20464;-72
2023/01/18 12:26:45;;;;;;;1999.90;999.90;;;11.00;91.60;;;;;;4995199;28;20438;-72
2023/01/18 12:29:29;;;;;;;1999.90;999.90;;;11.40;92.80;;;;;;4995669;28;21058;-72
2023/01/18 12:31:57;;;;;;;1999.90;999.90;;;11.90;88.80;;;;;;4995370;28;20388;-72
2023/01/18 12:34:34;;;;;;;1999.90;999.90;;;12.10;76.80;;;;;;4995025;28;20433;-72
2023/01/18 12:37:27;;;;;;;1999.90;999.90;;;12.30;68.20;;;;;;4994769;28;20401;-72
2023/01/18 12:40:03;;;;;;;1999.90;999.90;;;12.30;65.70;;;;;;5000249;28;20926;-72
2023/01/18 12:43:06;;;;;;;1999.90;999.90;;;12.20;60.70;;;;;;5004042;28;20408;-72
2023/01/18 12:46:06;;;;;;;1999.90;999.90;;;12.10;59.10;;;;;;5003511;28;20497;-72
2023/01/18 12:48:49;;;;;;;1999.90;999.90;;;12.00;58.00;;;;;;5003631;28;20408;-73
2023/01/18 12:51:20;;;;;;;1999.90;999.90;;;12.00;59.50;;;;;;5004039;28;20743;-73
2023/01/18 12:53:54;;;;;;;1999.90;999.90;;;12.10;55.20;;;;;;5003476;28;20431;-73
2023/01/18 12:56:29;;;;;;;1999.90;999.90;;;12.00;57.90;;;;;;5002545;28;20400;-72
2023/01/18 12:59:18;;;;;;;1999.90;999.90;;;12.40;59.70;;;;;;5002542;28;20401;-72